Time;durP1;ratioP1;P1;durP2;ratioP2;P2;SDS_P1;SDS_P2;PMS_P1;PMS_P2;Temp;Humidity;BMP_temperature;BMP_pressure;BME280_temperature;BME280_humidity;BME280_pressure;Samples;Min_cycle;Max_cycle;Signal;HPM_P1;HPM_P2
2024/01/29 00:01:26;;;;;;;4.05;1.83;;;;;;;4.97;65.39;101867.88;5089175;28;20032;-78
2024/01/29 00:03:51;;;;;;;4.70;2.17;;;;;;;5.05;64.31;101875.13;5053561;28;20115;-76
2024/01/29 00:06:17;;;;;;;3.25;1.65;;;;;;;4.90;63.54;101850.03;5068937;28;20040;-77
2024/01/29 00:08:42;;;;;;;4.30;2.10;;;;;;;4.94;63.86;101867.28;5069302;28;20036;-76
2024/01/29 00:11:08;;;;;;;4.22;2.10;;;;;;;4.82;64.23;101854.22;5069057;28;20100;-77
2024/01/29 00:13:33;;;;;;;14.73;10.15;;;;;;;4.76;64.36;101854.75;5085625;28;20088;-77
2024/01/29 00:15:59;;;;;;;4.93;2.70;;;;;;;5.07;63.36;101867.88;5088558;28;20040;-76
2024/01/29 00:18:25;;;;;;;5.80;2.50;;;;;;;5.04;63.81;101863.69;5089145;28;20040;-77
2024/01/29 00:20:50;;;;;;;5.70;2.60;;;;;;;4.93;66.02;101870.94;5087433;28;20088;-78
2024/01/29 00:23:16;;;;;;;38.35;27.75;;;;;;;4.66;64.55;101860.97;5076572;28;20094;-76
2024/01/29 00:25:43;;;;;;;9.27;5.88;;;;;;;4.95;64.46;101884.84;5068042;28;20540;-76
2024/01/29 00:28:09;;;;;;;18.67;10.90;;;;;;;4.88;64.12;101891.63;5069315;28;20021;-76
2024/01/29 00:30:34;;;;;;;41.85;22.38;;;;;;;4.77;64.93;101876.75;5069239;28;20039;-76
2024/01/29 00:32:59;;;;;;;24.20;14.48;;;;;;;4.63;65.45;101851.53;5059467;28;20461;-75
2024/01/29 00:35:25;;;;;;;6.60;3.83;;;;;;;4.78;66.64;101879.25;5089125;28;20104;-77
2024/01/29 00:37:51;;;;;;;6.13;3.33;;;;;;;4.96;66.27;101886.50;5089045;28;20024;-76
2024/01/29 00:40:17;;;;;;;8.18;2.92;;;;;;;4.97;66.60;101875.78;5075520;28;20449;-77
2024/01/29 00:42:43;;;;;;;6.50;3.08;;;;;;;5.04;66.54;101881.38;5070249;28;20514;-77
2024/01/29 00:45:09;;;;;;;5.38;2.88;;;;;;;4.89;67.28;101866.88;5068738;28;20040;-76
2024/01/29 00:47:34;;;;;;;6.60;3.55;;;;;;;4.71;68.37;101867.53;5068407;28;20031;-77
2024/01/29 00:50:00;;;;;;;6.10;3.55;;;;;;;4.72;67.21;101850.72;5069161;28;20028;-76
2024/01/29 00:52:25;;;;;;;7.05;3.85;;;;;;;4.68;68.18;101864.31;5072356;28;20032;-77
2024/01/29 00:54:51;;;;;;;7.45;5.18;;;;;;;4.44;68.01;101839.13;5070916;28;20028;-75
2024/01/29 00:57:16;;;;;;;5.88;3.20;;;;;;;4.38;67.35;101853.69;5089798;28;20020;-76
2024/01/29 00:59:42;;;;;;;7.60;5.00;;;;;;;4.57;64.54;101862.63;5083011;28;20035;-78
2024/01/29 01:02:08;;;;;;;7.60;5.43;;;;;;;4.42;63.48;101844.53;5069799;28;20067;-76
2024/01/29 01:04:33;;;;;;;11.70;8.70;;;;;;;4.60;64.11;101862.38;5085872;28;20107;-76
2024/01/29 01:06:59;;;;;;;15.13;10.73;;;;;;;4.42;62.87;101852.44;5089578;28;20077;-77
2024/01/29 01:09:24;;;;;;;7.57;4.60;;;;;;;4.38;63.46;101861.63;5072629;28;20032;-78
2024/01/29 01:11:49;;;;;;;8.75;4.78;;;;;;;4.41;63.17;101864.00;5091012;28;20063;-76
2024/01/29 01:14:15;;;;;;;7.18;4.10;;;;;;;4.51;63.62;101856.09;5082603;28;20029;-77
2024/01/29 01:16:40;;;;;;;7.28;3.72;;;;;;;4.65;63.38;101876.00;5078206;28;20045;-77
2024/01/29 01:19:06;;;;;;;17.17;12.00;;;;;;;4.34;64.83;101886.63;5078505;28;20092;-78
2024/01/29 01:21:31;;;;;;;10.18;5.55;;;;;;;4.33;65.25;101879.69;5098162;28;20589;-77
2024/01/29 01:23:56;;;;;;;10.05;5.00;;;;;;;4.35;64.03;101904.16;5078459;28;20105;-76
2024/01/29 01:26:22;;;;;;;19.02;12.82;;;;;;;4.31;62.44;101891.34;5098109;28;20028;-77
2024/01/29 01:28:47;;;;;;;12.52;7.35;;;;;;;4.17;61.77;101879.34;5079337;28;20016;-78
2024/01/29 01:31:13;;;;;;;6.88;3.75;;;;;;;4.12;59.33;101885.00;5084420;28;20032;-77
2024/01/29 01:33:38;;;;;;;6.97;3.95;;;;;;;4.31;59.12;101897.47;5083275;28;20092;-77
2024/01/29 01:36:04;;;;;;;7.78;4.15;;;;;;;4.39;59.67;101905.56;5081516;28;20059;-77
2024/01/29 01:38:29;;;;;;;6.13;3.13;;;;;;;4.31;60.48;101884.25;5080580;28;20323;-77
2024/01/29 01:40:54;;;;;;;4.95;2.65;;;;;;;4.54;59.95;101886.72;5061810;28;20023;-77
2024/01/29 01:43:21;;;;;;;5.00;2.38;;;;;;;4.47;59.89;101896.13;5083577;28;20051;-77
2024/01/29 01:46:06;;;;;;;6.80;3.55;;;;;;;4.10;61.50;101891.38;5079230;28;20052;-77
2024/01/29 01:48:35;;;;;;;9.52;6.05;;;;;;;3.98;63.67;101903.81;5078643;28;20030;-77
2024/01/29 01:51:02;;;;;;;12.93;7.57;;;;;;;3.78;64.12;101905.50;5077119;28;20080;-77
2024/01/29 01:53:31;;;;;;;15.48;9.82;;;;;;;4.08;62.92;101917.91;5079811;28;20223;-79
2024/01/29 01:55:58;;;;;;;13.10;6.60;;;;;;;3.92;63.41;101905.16;5094249;28;20425;-77
2024/01/29 01:58:24;;;;;;;19.57;10.20;;;;;;;3.62;63.97;101901.53;5093865;28;20042;-77
2024/01/29 02:00:50;;;;;;;38.13;20.45;;;;;;;3.59;64.37;101912.31;5074667;28;20110;-77
2024/01/29 02:03:16;;;;;;;13.20;7.55;;;;;;;3.40;62.67;101901.63;5088898;28;20111;-78
2024/01/29 02:05:42;;;;;;;20.83;8.93;;;;;;;2.98;62.05;101888.34;5091882;28;20176;-78
2024/01/29 02:08:07;;;;;;;12.07;6.13;;;;;;;2.80;62.61;101872.25;5092361;28;20577;-76
2024/01/29 02:10:33;;;;;;;17.58;8.80;;;;;;;2.96;62.02;101899.03;5085100;28;20024;-77
2024/01/29 02:12:59;;;;;;;60.40;28.92;;;;;;;3.22;59.15;101930.34;5053957;28;20617;-76
2024/01/29 02:15:25;;;;;;;16.65;8.75;;;;;;;2.70;59.51;101890.59;5090421;28;20032;-76
2024/01/29 02:17:50;;;;;;;25.27;10.82;;;;;;;2.59;59.98;101895.84;5073255;28;20056;-77
2024/01/29 02:20:16;;;;;;;12.95;5.75;;;;;;;2.69;60.14;101928.41;5088771;28;20028;-76
2024/01/29 02:22:45;;;;;;;3.53;1.70;;;;;;;2.66;62.41;101939.22;5070496;28;20108;-76
2024/01/29 02:25:12;;;;;;;8.38;3.75;;;;;;;3.01;60.98;101943.47;5087207;28;20142;-76
2024/01/29 02:27:37;;;;;;;11.63;5.60;;;;;;;2.56;60.89;101911.91;5091056;28;20024;-76
2024/01/29 02:30:04;;;;;;;6.70;3.08;;;;;;;2.75;59.28;101940.28;5090531;28;20024;-78
2024/01/29 02:32:30;;;;;;;4.03;2.15;;;;;;;2.24;60.68;101917.91;5051965;28;20025;-76
2024/01/29 02:34:55;;;;;;;11.93;4.93;;;;;;;2.32;60.87;101931.31;5084720;28;20507;-76
2024/01/29 02:37:21;;;;;;;7.80;3.55;;;;;;;2.32;60.80;101919.94;5091034;28;20030;-77
2024/01/29 02:39:50;;;;;;;5.63;3.00;;;;;;;2.36;62.12;101947.72;5072782;28;20032;-76
2024/01/29 02:42:18;;;;;;;6.63;3.53;;;;;;;2.56;61.13;101933.00;5072127;28;20119;-76
2024/01/29 02:44:45;;;;;;;;;;;;;;;2.53;61.15;101949.03;5080362;28;20020;-77
2024/01/29 02:47:10;;;;;;;26.60;13.57;;;;;;;2.39;61.43;101953.59;5089537;28;19947;-77
2024/01/29 02:49:36;;;;;;;17.08;9.07;;;;;;;2.48;62.79;101962.56;5090517;28;20063;-77
2024/01/29 02:52:01;;;;;;;7.20;3.80;;;;;;;2.42;61.54;101929.63;5075965;28;20032;-76
2024/01/29 02:54:26;;;;;;;5.95;2.97;;;;;;;2.54;60.33;101961.25;5072163;28;20399;-77
2024/01/29 02:56:52;;;;;;;5.10;2.22;;;;;;;2.30;59.93;101940.28;5070493;28;20025;-77
2024/01/29 02:59:17;;;;;;;5.90;2.20;;;;;;;2.52;61.17;101968.44;5069909;28;20020;-77
2024/01/29 03:01:43;;;;;;;4.18;2.05;;;;;;;2.24;62.14;101965.28;5069847;28;20025;-77
2024/01/29 03:04:08;;;;;;;5.40;1.98;;;;;;;2.18;62.04;101960.47;5071799;28;20412;-76
2024/01/29 03:06:33;;;;;;;4.10;1.70;;;;;;;2.47;60.64;101962.66;5070224;28;20505;-76
2024/01/29 03:08:59;;;;;;;3.88;1.90;;;;;;;2.34;61.32;101960.97;5069812;28;20494;-75
2024/01/29 03:11:24;;;;;;;3.22;1.80;;;;;;;2.25;62.33;101948.53;5052374;28;20173;-77
2024/01/29 03:13:50;;;;;;;5.70;2.50;;;;;;;2.41;61.67;101959.56;5051976;28;20370;-78
2024/01/29 03:16:15;;;;;;;4.40;2.33;;;;;;;2.50;62.38;101980.88;5054623;28;20050;-77
2024/01/29 03:18:40;;;;;;;7.03;3.15;;;;;;;1.90;62.72;101903.84;5069460;28;20024;-77
2024/01/29 03:21:06;;;;;;;3.55;1.60;;;;;;;2.35;62.53;101967.94;5069414;28;20040;-76
2024/01/29 03:23:32;;;;;;;3.88;1.88;;;;;;;2.41;63.54;101964.84;5051716;28;20063;-76
2024/01/29 03:25:57;;;;;;;5.93;2.50;;;;;;;2.24;63.84;101954.75;5085876;28;20105;-77
2024/01/29 03:28:22;;;;;;;5.53;2.55;;;;;;;2.25;63.54;101966.97;5090137;28;20026;-77
2024/01/29 03:30:48;;;;;;;27.20;10.40;;;;;;;1.96;63.56;101940.22;5089532;28;20941;-78
2024/01/29 03:33:13;;;;;;;92.15;30.58;;;;;;;1.70;64.44;101956.19;5051183;28;20028;-76
2024/01/29 03:35:38;;;;;;;41.10;16.90;;;;;;;1.78;64.63;101958.25;5083421;28;20059;-76
2024/01/29 03:38:04;;;;;;;43.67;21.58;;;;;;;1.76;64.47;101950.47;5089455;28;20498;-77
2024/01/29 03:40:29;;;;;;;28.88;15.07;;;;;;;1.85;63.42;101946.31;5089564;28;20107;-76
2024/01/29 03:42:55;;;;;;;14.52;7.55;;;;;;;2.08;63.75;101965.59;5054435;28;20036;-77
2024/01/29 03:45:20;;;;;;;102.53;51.65;;;;;;;2.04;62.41;101945.75;5078836;28;20462;-77
2024/01/29 03:47:45;;;;;;;163.07;81.82;;;;;;;2.05;63.38;101955.31;5089503;28;20059;-76
2024/01/29 03:50:11;;;;;;;119.53;64.82;;;;;;;1.74;63.76;101922.63;5089679;28;20127;-76
2024/01/29 03:52:36;;;;;;;91.35;55.83;;;;;;;1.86;64.53;101958.53;5070985;28;20058;-76
2024/01/29 03:55:02;;;;;;;41.47;25.88;;;;;;;1.81;64.67;101947.50;5085205;28;20062;-78
2024/01/29 03:57:27;;;;;;;27.88;22.83;;;;;;;1.89;64.04;101945.13;5088296;28;20113;-76
2024/01/29 03:59:56;;;;;;;11.85;7.15;;;;;;;2.08;62.78;101941.09;5089010;28;20047;-76
2024/01/29 04:02:22;;;;;;;58.33;49.28;;;;;;;1.97;63.22;101968.22;5079440;28;20075;-77
2024/01/29 04:04:48;;;;;;;21.95;18.08;;;;;;;1.70;64.27;101966.72;5070736;28;20082;-77
2024/01/29 04:07:14;;;;;;;42.03;37.58;;;;;;;1.59;64.96;101964.88;5088540;28;20024;-76
2024/01/29 04:09:39;;;;;;;74.95;30.90;;;;;;;1.37;66.56;101972.69;5089224;28;20054;-76
2024/01/29 04:12:05;;;;;;;181.55;60.80;;;;;;;1.49;65.21;101957.78;5082852;28;20115;-78
2024/01/29 04:14:30;;;;;;;66.45;33.40;;;;;;;1.52;65.55;101989.94;5068504;28;20016;-77
2024/01/29 04:16:56;;;;;;;43.80;28.95;;;;;;;1.33;66.78;101992.25;5087564;28;20044;-76
2024/01/29 04:19:21;;;;;;;91.95;64.38;;;;;;;1.22;66.88;101985.13;5070880;28;20059;-77
2024/01/29 04:21:47;;;;;;;89.40;66.65;;;;;;;1.14;67.52;101975.16;5085899;28;20118;-76
2024/01/29 04:24:13;;;;;;;63.55;50.95;;;;;;;1.12;67.73;101961.28;5068635;28;20028;-77
2024/01/29 04:26:41;;;;;;;64.57;47.20;;;;;;;1.36;66.80;101973.59;5081432;28;20160;-77
2024/01/29 04:29:08;;;;;;;34.13;26.20;;;;;;;1.44;66.70;101963.38;5078209;28;20512;-76
2024/01/29 04:31:35;;;;;;;12.45;5.85;;;;;;;1.70;66.83;102006.16;5077963;28;20074;-77
2024/01/29 04:34:00;;;;;;;8.20;4.57;;;;;;;1.75;66.41;101992.66;5081406;28;20965;-77
2024/01/29 04:36:26;;;;;;;10.98;6.03;;;;;;;1.38;66.23;102004.09;5077715;28;20030;-77
2024/01/29 04:38:51;;;;;;;8.90;5.60;;;;;;;1.38;66.73;102008.50;5079823;28;20047;-76
2024/01/29 04:41:21;;;;;;;9.95;5.20;;;;;;;0.91;68.35;101997.81;5076710;28;20066;-77
2024/01/29 04:43:47;;;;;;;8.38;4.60;;;;;;;0.89;68.61;101996.25;5077533;28;20024;-76
2024/01/29 04:46:12;;;;;;;9.85;5.00;;;;;;;0.74;68.83;102009.50;5080183;28;20439;-77
2024/01/29 04:48:39;;;;;;;33.67;23.35;;;;;;;0.54;69.79;101986.44;5077831;28;20015;-77
2024/01/29 04:51:08;;;;;;;30.00;23.50;;;;;;;0.64;69.56;101987.47;5078347;28;20035;-77
2024/01/29 04:53:35;;;;;;;21.33;15.02;;;;;;;0.91;68.86;102020.63;5077999;28;20611;-77
2024/01/29 04:56:05;;;;;;;21.65;13.52;;;;;;;1.10;68.79;102017.53;5073602;28;20028;-78
2024/01/29 04:58:31;;;;;;;22.40;14.63;;;;;;;1.10;68.48;102020.16;5075911;28;20017;-78
2024/01/29 05:00:58;;;;;;;27.23;16.33;;;;;;;1.23;68.41;102025.38;5077283;28;20031;-76
2024/01/29 05:03:26;;;;;;;22.13;14.45;;;;;;;1.17;69.09;102011.75;5076531;28;20109;-78
2024/01/29 05:05:51;;;;;;;27.27;17.00;;;;;;;1.14;68.00;102026.88;5059217;28;20028;-78
2024/01/29 05:08:18;;;;;;;14.07;8.88;;;;;;;0.97;69.36;102028.06;5058738;28;20029;-77
2024/01/29 05:10:44;;;;;;;14.77;8.55;;;;;;;1.05;69.99;102028.38;5072283;28;20029;-77
2024/01/29 05:13:10;;;;;;;19.85;11.43;;;;;;;0.96;70.53;102056.16;5061614;28;20029;-78
2024/01/29 05:15:35;;;;;;;14.98;7.97;;;;;;;1.09;70.89;102037.72;5090844;28;20032;-76
2024/01/29 05:18:01;;;;;;;14.10;8.20;;;;;;;1.27;69.40;102042.59;5057213;28;20047;-77
2024/01/29 05:20:29;;;;;;;17.35;10.00;;;;;;;1.08;70.25;102048.34;5083467;28;20078;-77
2024/01/29 05:22:55;;;;;;;19.90;11.95;;;;;;;0.85;69.78;102034.19;5083265;28;20024;-77
2024/01/29 05:25:20;;;;;;;12.30;7.53;;;;;;;0.66;70.42;102014.47;5081979;28;20028;-77
2024/01/29 05:27:45;;;;;;;9.73;5.82;;;;;;;1.13;69.43;102041.81;5085779;28;20500;-77
2024/01/29 05:30:11;;;;;;;9.23;4.10;;;;;;;0.80;70.15;102048.47;5092025;28;20115;-77
2024/01/29 05:32:36;;;;;;;10.23;5.30;;;;;;;0.54;71.27;102042.38;5072840;28;20024;-77
2024/01/29 05:35:02;;;;;;;8.10;3.95;;;;;;;0.88;70.88;102053.22;5091743;28;20036;-76
2024/01/29 05:37:28;;;;;;;6.40;3.28;;;;;;;0.87;70.64;102032.28;5071324;28;20039;-77
2024/01/29 05:39:54;;;;;;;10.32;4.22;;;;;;;0.99;70.51;102032.28;5091385;28;20069;-77
2024/01/29 05:42:20;;;;;;;8.07;4.63;;;;;;;1.13;70.83;102040.97;5091225;28;20020;-76
2024/01/29 05:44:45;;;;;;;8.55;3.78;;;;;;;1.08;70.03;102017.63;5091222;28;20107;-77
2024/01/29 05:47:10;;;;;;;6.50;3.38;;;;;;;1.39;69.69;102032.06;5091190;28;20028;-76
2024/01/29 05:49:36;;;;;;;6.43;2.90;;;;;;;1.42;68.54;102015.22;5090695;28;20047;-79
2024/01/29 05:52:01;;;;;;;6.00;2.20;;;;;;;1.54;68.25;102016.97;5090859;28;20027;-76
2024/01/29 05:54:28;;;;;;;6.75;3.08;;;;;;;1.58;68.71;102026.31;5090463;28;20428;-77
2024/01/29 05:56:53;;;;;;;35.67;9.82;;;;;;;1.66;68.30;102022.28;5089713;28;20039;-76
2024/01/29 05:59:19;;;;;;;46.30;14.43;;;;;;;1.88;67.96;102034.69;5090610;28;20036;-77
2024/01/29 06:01:44;;;;;;;20.00;10.52;;;;;;;0.65;70.68;102051.31;5090659;28;20054;-77
2024/01/29 06:04:10;;;;;;;13.77;6.13;;;;;;;0.10;73.36;102051.50;5089951;28;20043;-76
2024/01/29 06:06:38;;;;;;;9.05;4.72;;;;;;;-0.19;75.13;102039.44;5087744;28;20028;-76
2024/01/29 06:09:06;;;;;;;10.45;5.05;;;;;;;0.04;76.38;102043.16;5091255;28;20032;-76
2024/01/29 06:11:32;;;;;;;8.52;3.90;;;;;;;0.38;75.12;102060.97;5090449;28;20067;-77
2024/01/29 06:13:58;;;;;;;6.43;2.95;;;;;;;0.85;73.98;102057.84;5090383;28;20055;-77
2024/01/29 06:16:25;;;;;;;8.40;3.35;;;;;;;0.85;74.07;102058.66;5088909;28;20123;-78
2024/01/29 06:18:51;;;;;;;6.80;2.90;;;;;;;0.86;72.93;102047.22;5090378;28;20035;-77
2024/01/29 06:21:16;;;;;;;9.90;3.45;;;;;;;0.69;74.16;102058.88;5090231;28;20036;-77
2024/01/29 06:23:42;;;;;;;16.92;9.65;;;;;;;0.80;73.05;102068.66;5090670;28;20472;-77
2024/01/29 06:26:07;;;;;;;14.52;6.75;;;;;;;0.92;74.06;102078.31;5090610;28;20042;-77
2024/01/29 06:28:33;;;;;;;14.25;6.45;;;;;;;1.05;72.45;102054.66;5089666;28;20036;-78
2024/01/29 06:30:58;;;;;;;12.80;6.25;;;;;;;1.67;70.57;102076.56;5090750;28;20035;-77
2024/01/29 06:33:24;;;;;;;22.80;10.63;;;;;;;1.65;71.05;102057.41;5069020;28;20055;-77
2024/01/29 06:35:51;;;;;;;13.13;6.60;;;;;;;1.51;71.23;102056.66;5069486;28;20057;-76
2024/01/29 06:38:17;;;;;;;12.32;6.03;;;;;;;1.74;71.99;102051.50;5074304;28;20036;-76
2024/01/29 06:40:43;;;;;;;10.35;5.55;;;;;;;1.97;70.95;102055.91;5070452;28;20029;-77
2024/01/29 06:43:08;;;;;;;16.83;8.70;;;;;;;2.28;70.07;102077.28;5070307;28;20137;-76
2024/01/29 06:45:33;;;;;;;51.80;40.25;;;;;;;2.31;70.13;102089.38;5051748;28;20481;-77
2024/01/29 06:47:59;;;;;;;18.33;13.27;;;;;;;2.40;70.12;102075.53;5082123;28;20053;-77
2024/01/29 06:50:25;;;;;;;16.55;12.38;;;;;;;2.59;70.10;102072.34;5089939;28;20559;-76
2024/01/29 06:52:50;;;;;;;18.88;13.18;;;;;;;2.50;69.51;102075.69;5090081;28;20081;-78
2024/01/29 06:55:20;;;;;;;33.38;25.80;;;;;;;2.57;69.02;102074.25;5074031;28;20082;-77
2024/01/29 06:57:45;;;;;;;25.67;14.65;;;;;;;2.84;68.86;102070.44;5079407;28;20023;-76
2024/01/29 07:00:11;;;;;;;27.70;17.08;;;;;;;3.07;67.19;102072.16;5071676;28;20024;-77
2024/01/29 07:02:37;;;;;;;18.95;11.30;;;;;;;3.14;66.25;102065.41;5090404;28;20024;-77
2024/01/29 07:05:02;;;;;;;7.50;3.95;;;;;;;3.27;63.70;102081.13;5090203;28;20068;-77
2024/01/29 07:07:27;;;;;;;8.63;4.15;;;;;;;3.19;65.63;102058.00;5067605;28;20029;-77
2024/01/29 07:09:57;;;;;;;6.20;3.22;;;;;;;3.02;63.40;102079.56;5069598;28;20615;-75
2024/01/29 07:12:22;;;;;;;48.78;40.75;;;;;;;2.97;63.67;102053.56;5069276;28;20051;-77
2024/01/29 07:14:49;;;;;;;22.50;18.52;;;;;;;3.31;62.36;102092.25;5051281;28;20489;-77
2024/01/29 07:17:14;;;;;;;80.95;61.05;;;;;;;3.44;62.94;102087.69;5071078;28;20385;-77
2024/01/29 07:19:39;;;;;;;36.22;29.75;;;;;;;3.50;61.37;102087.19;5071112;28;20085;-76
2024/01/29 07:22:08;;;;;;;12.85;7.47;;;;;;;3.82;60.93;102103.09;5070546;28;20743;-76
2024/01/29 07:24:34;;;;;;;21.83;18.40;;;;;;;3.81;59.57;102098.75;5082862;28;20032;-76
2024/01/29 07:27:00;;;;;;;60.00;53.58;;;;;;;3.87;59.11;102093.94;5069653;28;20036;-78
2024/01/29 07:29:26;;;;;;;11.25;9.23;;;;;;;4.02;57.74;102096.19;5079039;28;20988;-77
2024/01/29 07:31:55;;;;;;;21.35;15.30;;;;;;;3.98;58.17;102083.34;5079052;28;20158;-76
2024/01/29 07:34:20;;;;;;;8.23;4.32;;;;;;;4.01;59.52;102064.63;5080920;28;20034;-77
2024/01/29 07:36:47;;;;;;;25.15;15.43;;;;;;;4.30;58.33;102085.97;5088531;28;20028;-77
2024/01/29 07:39:13;;;;;;;11.70;6.97;;;;;;;4.48;58.32;102077.47;5084592;28;20050;-76
2024/01/29 07:41:39;;;;;;;16.73;10.20;;;;;;;4.61;59.16;102096.59;5088858;28;20109;-76
2024/01/29 07:44:04;;;;;;;23.00;16.55;;;;;;;4.74;56.29;102120.16;5088944;28;20032;-76
2024/01/29 07:46:30;;;;;;;19.40;12.88;;;;;;;4.81;55.12;102093.09;5088446;28;20047;-77
2024/01/29 07:48:56;;;;;;;9.23;5.93;;;;;;;4.83;55.97;102101.72;5086434;28;20020;-76
2024/01/29 07:51:22;;;;;;;13.60;10.90;;;;;;;5.18;55.33;102116.34;5088664;28;20042;-76
2024/01/29 07:53:47;;;;;;;16.83;13.60;;;;;;;5.52;53.49;102115.25;5088176;28;20027;-76
2024/01/29 07:56:13;;;;;;;11.95;8.95;;;;;;;5.83;51.13;102108.88;5053296;28;20394;-77
2024/01/29 07:58:38;;;;;;;15.43;10.25;;;;;;;5.83;48.65;102087.69;5078278;28;20519;-77
2024/01/29 08:01:04;;;;;;;13.27;8.55;;;;;;;6.03;47.94;102104.47;5088434;28;20043;-76
2024/01/29 08:03:29;;;;;;;12.20;6.28;;;;;;;6.04;48.17;102111.44;5088036;28;20464;-78
2024/01/29 08:05:54;;;;;;;15.90;10.90;;;;;;;6.08;47.64;102106.69;5074540;28;20040;-77
2024/01/29 08:08:20;;;;;;;28.35;19.92;;;;;;;6.65;46.76;102143.91;5073703;28;20031;-76
2024/01/29 08:10:46;;;;;;;10.93;5.45;;;;;;;6.70;45.73;102127.56;5070270;28;20472;-76
2024/01/29 08:13:12;;;;;;;6.75;4.75;;;;;;;5.96;46.65;102129.81;5087887;28;20028;-77
2024/01/29 08:15:37;;;;;;;11.73;8.13;;;;;;;5.51;48.31;102106.44;5087526;28;20401;-77
2024/01/29 08:18:03;;;;;;;8.10;4.20;;;;;;;5.73;47.91;102141.59;5087248;28;20032;-76
2024/01/29 08:20:28;;;;;;;11.88;7.05;;;;;;;5.47;47.46;102110.31;5088067;28;20738;-76
2024/01/29 08:22:53;;;;;;;25.70;15.77;;;;;;;5.61;48.41;102136.41;5088267;28;20028;-77
2024/01/29 08:25:20;;;;;;;11.57;6.85;;;;;;;5.96;47.74;102151.00;5063674;28;20044;-77
2024/01/29 08:27:45;;;;;;;22.52;19.65;;;;;;;5.56;47.55;102138.66;5067582;28;20028;-77
2024/01/29 08:30:11;;;;;;;14.77;10.18;;;;;;;5.62;47.08;102166.38;5086836;28;20445;-75
2024/01/29 08:32:36;;;;;;;18.58;13.63;;;;;;;5.28;48.08;102144.69;5069513;28;20024;-76
2024/01/29 08:35:02;;;;;;;9.45;5.70;;;;;;;5.67;48.61;102158.03;5069818;28;20405;-77
2024/01/29 08:37:28;;;;;;;61.50;55.33;;;;;;;6.00;47.41;102165.66;5087960;28;20039;-77
2024/01/29 08:39:53;;;;;;;17.30;11.23;;;;;;;5.69;46.99;102148.16;5085891;28;20089;-77
2024/01/29 08:42:19;;;;;;;10.80;9.30;;;;;;;5.74;47.02;102167.97;5087695;28;20028;-76
2024/01/29 08:44:45;;;;;;;9.98;7.20;;;;;;;5.35;47.50;102146.66;5087596;28;20024;-76
2024/01/29 08:47:11;;;;;;;13.38;8.00;;;;;;;5.46;46.83;102172.19;5087617;28;20040;-76
2024/01/29 08:49:36;;;;;;;17.80;10.70;;;;;;;5.45;47.63;102162.56;5076296;28;20037;-77
2024/01/29 08:52:02;;;;;;;37.78;24.33;;;;;;;5.48;47.60;102161.47;5049180;28;20028;-77
2024/01/29 08:54:27;;;;;;;40.97;22.33;;;;;;;5.34;47.46;102160.84;5067285;28;20021;-77
2024/01/29 08:56:52;;;;;;;66.00;35.78;;;;;;;5.27;48.82;102172.94;5067096;28;20467;-76
2024/01/29 08:59:19;;;;;;;30.88;13.65;;;;;;;6.06;46.46;102158.97;5057748;28;20028;-77
2024/01/29 09:01:47;;;;;;;20.80;14.35;;;;;;;6.70;46.60;102154.94;5087194;28;20032;-76
2024/01/29 09:04:13;;;;;;;29.60;16.67;;;;;;;7.17;43.76;102151.44;5087608;28;20048;-77
2024/01/29 09:06:39;;;;;;;41.17;30.83;;;;;;;7.17;42.38;102156.75;5074120;28;20074;-76
2024/01/29 09:09:04;;;;;;;18.23;13.93;;;;;;;7.16;43.77;102166.53;5069771;28;20477;-77
2024/01/29 09:11:30;;;;;;;11.02;9.93;;;;;;;7.44;42.52;102158.63;5067222;28;20032;-77
2024/01/29 09:13:55;;;;;;;14.38;12.52;;;;;;;7.44;43.11;102154.13;5067033;28;20433;-75
2024/01/29 09:16:21;;;;;;;13.85;12.35;;;;;;;6.93;43.28;102170.53;5066760;28;20482;-76
2024/01/29 09:18:46;;;;;;;20.63;18.42;;;;;;;6.79;43.06;102148.75;5070284;28;20035;-76
2024/01/29 09:21:11;;;;;;;14.82;12.63;;;;;;;6.98;43.24;102141.72;5087141;28;20131;-77
2024/01/29 09:23:38;;;;;;;11.75;6.22;;;;;;;7.54;43.03;102167.38;5069471;28;20081;-77
2024/01/29 09:26:05;;;;;;;10.07;6.07;;;;;;;7.53;41.98;102170.16;5063070;28;20033;-77
2024/01/29 09:28:30;;;;;;;23.83;15.93;;;;;;;7.53;42.59;102164.84;5067648;28;20035;-77
2024/01/29 09:30:56;;;;;;;7.13;2.95;;;;;;;7.31;42.66;102136.88;5070043;28;20036;-77
2024/01/29 09:33:21;;;;;;;10.70;7.40;;;;;;;7.95;42.58;102129.81;5066834;28;20052;-76
2024/01/29 09:35:47;;;;;;;8.30;6.20;;;;;;;7.64;41.98;102138.94;5067197;28;20028;-77
2024/01/29 09:38:15;;;;;;;8.20;5.88;;;;;;;7.58;41.46;102133.38;5066744;28;20052;-77
2024/01/29 09:40:44;;;;;;;;;;;;;;;8.17;39.26;102149.75;5069212;28;20552;-76
2024/01/29 09:43:11;;;;;;;9.98;4.78;;;;;;;8.11;40.50;102129.13;5066924;28;19969;-77
2024/01/29 09:45:37;;;;;;;9.43;5.50;;;;;;;8.46;40.30;102107.03;5066995;28;20028;-77
2024/01/29 09:48:04;;;;;;;5.13;3.67;;;;;;;8.07;40.01;102135.72;5067160;28;20116;-77
2024/01/29 09:50:32;;;;;;;7.10;4.38;;;;;;;8.22;40.40;102126.25;5079664;28;20024;-77
2024/01/29 09:52:59;;;;;;;9.93;7.50;;;;;;;8.85;40.32;102151.84;5088838;28;20032;-76
2024/01/29 09:55:27;;;;;;;6.22;3.25;;;;;;;9.33;37.92;102120.34;5072550;28;20604;-77
2024/01/29 09:57:52;;;;;;;5.43;2.40;;;;;;;9.44;36.23;102133.38;5090562;28;20451;-77
2024/01/29 10:00:18;;;;;;;9.10;6.43;;;;;;;9.34;37.51;102106.03;5071256;28;20032;-77
2024/01/29 10:02:44;;;;;;;5.78;3.50;;;;;;;8.96;39.83;102129.47;5072154;28;20040;-77
2024/01/29 10:05:11;;;;;;;5.95;2.90;;;;;;;8.94;38.60;102131.44;5072404;28;20031;-77
2024/01/29 10:07:41;;;;;;;16.27;10.48;;;;;;;8.72;38.72;102117.66;5090598;28;20028;-76
2024/01/29 10:10:10;;;;;;;8.10;4.95;;;;;;;8.41;38.71;102114.63;5071353;28;20103;-77
2024/01/29 10:12:36;;;;;;;9.90;8.75;;;;;;;8.47;38.28;102124.63;5090464;28;20028;-77
2024/01/29 10:15:01;;;;;;;6.70;4.47;;;;;;;8.45;38.29;102127.44;5071686;28;20024;-76
2024/01/29 10:17:27;;;;;;;5.43;2.65;;;;;;;8.37;38.66;102121.22;5090480;28;20051;-78
2024/01/29 10:19:53;;;;;;;8.23;6.30;;;;;;;8.62;38.63;102119.59;5066798;28;20059;-78
2024/01/29 10:22:23;;;;;;;4.25;2.20;;;;;;;8.57;37.28;102117.41;5070077;28;20546;-76
2024/01/29 10:25:07;;;;;;;7.28;3.83;;;;;;;8.62;38.39;102116.94;5070038;28;20040;-77
2024/01/29 10:27:33;;;;;;;8.35;4.53;;;;;;;8.78;37.18;102117.03;5070194;28;20071;-76
2024/01/29 10:29:58;;;;;;;15.60;7.78;;;;;;;8.61;38.12;102123.25;5080173;28;20028;-77
2024/01/29 10:32:24;;;;;;;11.43;6.50;;;;;;;8.44;37.20;102098.38;5089990;28;20115;-78
2024/01/29 10:34:49;;;;;;;9.45;4.97;;;;;;;8.00;36.65;102083.19;5072037;28;20435;-77
2024/01/29 10:37:20;;;;;;;6.55;3.45;;;;;;;8.12;36.99;102101.56;5071333;28;20071;-77
2024/01/29 10:39:47;;;;;;;5.03;2.97;;;;;;;8.67;37.35;102098.69;5078795;28;20043;-76
2024/01/29 10:42:14;;;;;;;5.53;2.85;;;;;;;8.73;35.95;102114.03;5073883;28;20071;-77
2024/01/29 10:44:40;;;;;;;4.75;2.20;;;;;;;9.69;35.38;102086.31;5078618;28;20463;-78
2024/01/29 10:47:16;;;;;;;5.25;2.45;;;;;;;10.20;34.35;102110.22;5080206;28;20036;-77
2024/01/29 10:49:43;;;;;;;3.20;1.73;;;;;;;9.88;33.53;102066.53;5071689;28;20085;-77
2024/01/29 10:52:09;;;;;;;6.82;2.15;;;;;;;10.38;34.32;102089.56;5071198;28;20044;-77
2024/01/29 10:54:35;;;;;;;5.55;2.85;;;;;;;11.17;32.88;102084.38;5069271;28;20833;-76
2024/01/29 10:57:01;;;;;;;8.23;2.50;;;;;;;11.40;32.71;102073.75;5069424;28;20033;-78
2024/01/29 10:59:28;;;;;;;4.93;2.30;;;;;;;10.86;32.37;102079.81;5051428;28;20489;-77
2024/01/29 11:01:55;;;;;;;6.03;4.07;;;;;;;10.24;33.21;102074.22;5071990;28;20096;-77
2024/01/29 11:04:21;;;;;;;45.92;38.65;;;;;;;10.37;32.87;102077.22;5068330;28;20029;-76
2024/01/29 11:06:52;;;;;;;17.92;15.00;;;;;;;10.91;32.85;102073.13;5069248;28;20413;-77
2024/01/29 11:09:22;;;;;;;26.48;23.38;;;;;;;11.68;32.24;102075.91;5068934;28;20157;-77
2024/01/29 11:11:51;;;;;;;20.40;18.20;;;;;;;12.09;30.82;102089.03;5078240;28;20028;-78
2024/01/29 11:14:21;;;;;;;32.15;28.88;;;;;;;11.86;30.99;102084.50;5083202;28;20031;-76
2024/01/29 11:16:47;;;;;;;17.42;15.57;;;;;;;11.39;31.22;102072.06;5089074;28;20128;-76
2024/01/29 11:19:13;;;;;;;26.77;24.05;;;;;;;11.64;31.41;102072.75;5068661;28;20024;-76
2024/01/29 11:21:51;;;;;;;6.40;3.58;;;;;;;11.88;32.44;102065.59;5081345;28;20032;-77